createdAt,value
2023-03-02T00:01:34.976Z,24.60
2023-03-02T00:04:05.974Z,22.67
2023-03-02T00:06:36.761Z,23.60
2023-03-02T00:09:06.311Z,21.77
2023-03-02T00:11:36.669Z,22.38
2023-03-02T00:14:06.462Z,25.85
2023-03-02T00:16:35.117Z,25.98
2023-03-02T00:19:03.513Z,24.42
2023-03-02T00:21:32.416Z,22.23
2023-03-02T00:24:00.744Z,23.92
2023-03-02T00:26:29.061Z,22.92
2023-03-02T00:28:57.310Z,24.92
2023-03-02T00:31:27.030Z,24.50
2023-03-02T00:33:56.169Z,26.52
2023-03-02T00:36:24.943Z,24.65
2023-03-02T00:38:54.045Z,26.15
2023-03-02T00:41:22.634Z,21.98
2023-03-02T00:43:51.534Z,22.63
2023-03-02T00:46:22.432Z,24.55
2023-03-02T00:48:53.218Z,23.25
2023-03-02T00:51:21.626Z,25.33
2023-03-02T00:53:49.953Z,24.00
2023-03-02T00:56:18.175Z,25.92
2023-03-02T00:58:50.549Z,25.73
2023-03-02T01:01:19.318Z,24.73
2023-03-02T01:03:52.937Z,24.17
2023-03-02T01:06:22.905Z,25.15
2023-03-02T01:08:51.097Z,27.55
2023-03-02T01:11:22.178Z,28.33
2023-03-02T01:13:51.320Z,25.08
2023-03-02T01:16:19.972Z,27.75
2023-03-02T01:18:48.297Z,23.60
2023-03-02T01:21:17.929Z,25.60
2023-03-02T01:23:46.145Z,25.95
2023-03-02T01:26:14.984Z,28.17
2023-03-02T01:28:43.364Z,22.15
2023-03-02T01:31:11.644Z,25.40
2023-03-02T01:33:40.030Z,24.63
2023-03-02T01:36:09.300Z,22.80
2023-03-02T01:38:38.913Z,24.48
2023-03-02T01:41:07.211Z,24.85
2023-03-02T01:43:35.596Z,27.23
2023-03-02T01:46:05.815Z,23.63
2023-03-02T01:48:59.250Z,25.50
2023-03-02T01:51:45.928Z,26.27
2023-03-02T01:54:23.088Z,27.73
2023-03-02T01:57:01.005Z,26.00
2023-03-02T01:59:32.610Z,27.33
2023-03-02T02:02:05.989Z,24.42
2023-03-02T02:04:37.598Z,25.02
2023-03-02T02:09:40.618Z,29.73
2023-03-02T02:12:14.804Z,25.83
2023-03-02T02:14:44.238Z,26.88
2023-03-02T02:17:13.869Z,26.80
2023-03-02T02:19:54.110Z,26.63
2023-03-02T02:22:34.879Z,27.27
2023-03-02T02:25:10.849Z,24.83
2023-03-02T02:27:40.452Z,29.38
2023-03-02T02:30:11.723Z,28.23
2023-03-02T02:32:41.926Z,26.42
2023-03-02T02:35:15.619Z,26.08
2023-03-02T02:37:47.467Z,26.95
2023-03-02T02:40:21.943Z,28.00
2023-03-02T02:42:54.227Z,28.38
2023-03-02T02:47:52.612Z,29.40
2023-03-02T02:50:24.316Z,28.83
2023-03-02T02:52:57.858Z,26.42
2023-03-02T02:55:27.318Z,29.05
2023-03-02T02:58:00.582Z,29.42
2023-03-02T03:00:29.124Z,29.10
2023-03-02T03:03:02.108Z,27.73
2023-03-02T03:05:30.516Z,27.25
2023-03-02T03:08:09.142Z,30.27
2023-03-02T03:10:42.125Z,29.15
2023-03-02T03:13:13.421Z,27.23
2023-03-02T03:15:42.294Z,29.65
2023-03-02T03:18:10.476Z,28.73
2023-03-02T03:20:38.679Z,27.83
2023-03-02T03:23:06.918Z,23.73
2023-03-02T03:25:35.862Z,27.60
2023-03-02T03:28:04.736Z,24.52
2023-03-02T03:30:35.228Z,28.77
2023-03-02T03:33:03.503Z,28.77
2023-03-02T03:35:32.022Z,28.42
2023-03-02T03:38:00.225Z,28.60
2023-03-02T03:40:29.825Z,26.23
2023-03-02T03:42:58.341Z,29.52
2023-03-02T03:45:27.550Z,27.35
2023-03-02T03:47:59.004Z,27.70
2023-03-02T03:50:27.378Z,27.63
2023-03-02T03:52:56.106Z,28.52
2023-03-02T03:55:30.141Z,32.30
2023-03-02T03:57:59.152Z,30.95
2023-03-02T04:00:27.780Z,31.55
2023-03-02T04:03:08.100Z,30.00
2023-03-02T04:05:36.763Z,30.33
2023-03-02T04:08:06.373Z,28.92
2023-03-02T04:10:35.891Z,36.08
2023-03-02T04:13:04.550Z,27.13
2023-03-02T04:15:33.286Z,30.13
2023-03-02T04:18:03.880Z,30.50
2023-03-02T04:23:03.600Z,30.90
2023-03-02T04:25:32.132Z,30.20
2023-03-02T04:28:06.566Z,29.52
2023-03-02T04:30:38.433Z,28.40
2023-03-02T04:33:06.883Z,29.67
2023-03-02T04:35:37.896Z,29.52
2023-03-02T04:38:06.193Z,29.15
2023-03-02T04:40:34.837Z,29.38
2023-03-02T04:43:03.230Z,30.38
2023-03-02T04:45:31.733Z,26.35
2023-03-02T04:47:59.996Z,26.38
2023-03-02T04:50:28.831Z,31.25
2023-03-02T04:52:58.676Z,30.48
2023-03-02T04:55:28.508Z,30.52
2023-03-02T04:57:56.794Z,28.08
2023-03-02T05:00:25.271Z,29.77
2023-03-02T05:02:53.552Z,27.42
2023-03-02T05:05:24.294Z,30.33
2023-03-02T05:07:53.431Z,29.15
2023-03-02T05:10:23.876Z,29.38
2023-03-02T05:13:02.397Z,31.35
2023-03-02T05:15:32.904Z,32.08
2023-03-02T05:18:02.190Z,28.65
2023-03-02T05:20:31.625Z,31.52
2023-03-02T05:23:02.256Z,29.30
2023-03-02T05:25:34.495Z,31.10
2023-03-02T05:28:02.989Z,27.67
2023-03-02T05:30:32.998Z,29.08
2023-03-02T05:33:01.215Z,31.90
2023-03-02T05:35:29.454Z,29.83
2023-03-02T05:37:57.804Z,31.90
2023-03-02T05:40:26.008Z,29.52
2023-03-02T05:42:56.001Z,32.60
2023-03-02T05:45:26.931Z,30.55
2023-03-02T05:47:55.275Z,29.33
2023-03-02T05:50:23.566Z,30.83
2023-03-02T05:52:52.233Z,28.95
2023-03-02T05:55:20.634Z,29.23
2023-03-02T05:57:49.744Z,29.73
2023-03-02T06:00:20.625Z,30.33
2023-03-02T06:02:49.541Z,31.88
2023-03-02T06:05:19.943Z,29.42
2023-03-02T06:07:48.347Z,33.72
2023-03-02T06:10:16.660Z,32.30
2023-03-02T06:12:45.071Z,30.70
2023-03-02T06:15:13.429Z,32.17
2023-03-02T06:17:43.073Z,30.65
2023-03-02T06:20:12.578Z,30.38
2023-03-02T06:22:42.492Z,31.75
2023-03-02T06:25:12.783Z,29.40
2023-03-02T06:27:42.473Z,30.85
2023-03-02T06:30:15.041Z,29.05
2023-03-02T06:32:44.760Z,30.73
2023-03-02T06:35:14.122Z,31.80
2023-03-02T06:37:44.261Z,32.28
2023-03-02T06:40:14.337Z,33.03
2023-03-02T06:42:43.750Z,30.13
2023-03-02T06:45:13.002Z,32.33
2023-03-02T06:47:41.321Z,32.22
2023-03-02T06:50:12.538Z,34.08
2023-03-02T06:52:40.701Z,33.75
2023-03-02T06:55:09.987Z,30.05
2023-03-02T06:57:38.639Z,31.70
2023-03-02T07:00:14.197Z,31.35
2023-03-02T07:02:42.707Z,28.45
2023-03-02T07:05:13.270Z,30.17
2023-03-02T07:07:41.532Z,31.92
2023-03-02T07:10:12.254Z,29.90
2023-03-02T07:12:40.923Z,27.67
2023-03-02T07:15:12.058Z,29.58
2023-03-02T07:17:40.717Z,32.30
2023-03-02T07:20:10.323Z,34.25
2023-03-02T07:22:40.061Z,30.85
2023-03-02T07:25:10.735Z,29.35
2023-03-02T07:27:39.446Z,28.17
2023-03-02T07:30:09.398Z,30.50
2023-03-02T07:32:37.667Z,30.48
2023-03-02T07:35:06.444Z,33.50
2023-03-02T07:37:35.111Z,31.30
2023-03-02T07:40:05.115Z,31.88
2023-03-02T07:42:33.489Z,31.77
2023-03-02T07:45:04.424Z,33.17
2023-03-02T07:47:32.825Z,31.92
2023-03-02T07:50:01.167Z,28.98
2023-03-02T07:52:30.740Z,27.38
2023-03-02T07:54:58.912Z,29.75
2023-03-02T07:57:28.651Z,31.70
2023-03-02T07:59:56.836Z,31.25
2023-03-02T08:02:25.502Z,28.23
2023-03-02T08:04:53.867Z,30.02
2023-03-02T08:07:22.076Z,28.55
2023-03-02T08:09:50.323Z,29.80
2023-03-02T08:12:18.725Z,31.25
2023-03-02T08:14:48.603Z,28.45
2023-03-02T08:17:16.999Z,29.58
2023-03-02T08:19:45.293Z,29.67
2023-03-02T08:22:13.605Z,30.48
2023-03-02T08:24:42.894Z,30.77
2023-03-02T08:27:14.465Z,29.70
2023-03-02T08:32:12.530Z,25.55
2023-03-02T08:34:40.951Z,27.95
2023-03-02T08:37:09.251Z,28.95
2023-03-02T08:39:37.490Z,26.42
2023-03-02T08:42:05.711Z,29.73
2023-03-02T08:44:34.063Z,29.02
2023-03-02T08:47:02.297Z,26.58
2023-03-02T08:49:31.980Z,27.63
2023-03-02T08:52:00.773Z,27.92
2023-03-02T08:54:29.193Z,27.25
2023-03-02T08:56:57.623Z,28.27
2023-03-02T08:59:25.932Z,28.67
2023-03-02T09:01:54.160Z,28.13
2023-03-02T09:04:22.934Z,30.08
2023-03-02T09:06:52.755Z,32.58
2023-03-02T09:09:21.093Z,31.45
2023-03-02T09:11:49.336Z,28.20
2023-03-02T09:14:17.842Z,32.97
2023-03-02T09:16:47.177Z,28.88
2023-03-02T09:19:16.132Z,27.35
2023-03-02T09:21:44.377Z,29.40
2023-03-02T09:24:14.081Z,28.13
2023-03-02T09:26:42.328Z,28.23
2023-03-02T09:29:10.650Z,28.15
2023-03-02T09:31:39.207Z,26.67
2023-03-02T09:34:07.603Z,27.88
2023-03-02T09:36:36.534Z,31.05
2023-03-02T09:39:09.364Z,26.23
2023-03-02T09:42:03.573Z,27.88
2023-03-02T09:44:48.863Z,28.27
2023-03-02T09:47:34.860Z,28.25
2023-03-02T09:50:17.631Z,28.00
2023-03-02T09:52:53.767Z,36.92
2023-03-02T09:55:26.319Z,29.80
2023-03-02T09:57:56.898Z,29.02
2023-03-02T10:00:29.376Z,27.15
2023-03-02T10:03:14.938Z,29.15
2023-03-02T10:05:46.853Z,29.33
2023-03-02T10:08:17.978Z,25.42
2023-03-02T10:10:48.089Z,28.17
2023-03-02T10:13:24.457Z,27.70
2023-03-02T10:16:03.338Z,26.10
2023-03-02T10:18:36.528Z,26.25
2023-03-02T10:21:10.041Z,26.23
2023-03-02T10:23:44.031Z,26.40
2023-03-02T10:26:22.286Z,27.85
2023-03-02T10:28:57.000Z,24.13
2023-03-02T10:31:29.166Z,25.48
2023-03-02T10:33:57.755Z,29.02
2023-03-02T10:36:28.532Z,25.25
2023-03-02T10:39:00.504Z,23.30
2023-03-02T10:41:34.109Z,27.10
2023-03-02T10:44:07.644Z,24.90
2023-03-02T10:46:43.730Z,25.52
2023-03-02T10:49:32.425Z,25.17
2023-03-02T10:52:02.815Z,23.08
2023-03-02T10:54:34.827Z,25.05
2023-03-02T10:57:07.356Z,28.33
2023-03-02T10:59:49.573Z,26.10
2023-03-02T11:02:23.901Z,23.58
2023-03-02T11:04:57.591Z,25.15
2023-03-02T11:07:28.969Z,24.45
2023-03-02T11:10:02.969Z,24.10
2023-03-02T11:12:32.375Z,24.55
2023-03-02T11:15:23.043Z,22.65
2023-03-02T11:17:56.180Z,23.00
2023-03-02T11:20:28.419Z,24.67
2023-03-02T11:23:06.473Z,25.48
2023-03-02T11:25:39.866Z,21.90
2023-03-02T11:28:19.381Z,24.10
2023-03-02T11:30:51.967Z,21.30
2023-03-02T11:33:26.480Z,20.83
2023-03-02T11:35:58.362Z,22.52
2023-03-02T11:38:29.624Z,21.80
2023-03-02T11:41:01.342Z,22.88
2023-03-02T11:43:29.908Z,21.83
2023-03-02T11:46:06.693Z,21.75
2023-03-02T11:48:40.644Z,23.58
2023-03-02T11:51:18.815Z,22.70
2023-03-02T11:53:52.485Z,25.05
2023-03-02T11:56:21.164Z,28.23
2023-03-02T12:06:45.728Z,19.20
2023-03-02T12:12:11.891Z,18.08
2023-03-02T12:14:42.446Z,19.80
2023-03-02T12:17:33.240Z,18.58
2023-03-02T12:20:28.946Z,21.00
2023-03-02T12:23:11.178Z,20.58
2023-03-02T12:25:51.172Z,19.58
2023-03-02T12:28:34.114Z,17.70
2023-03-02T12:31:11.824Z,18.85
2023-03-02T12:33:44.513Z,17.90
2023-03-02T12:36:15.755Z,21.17
2023-03-02T12:38:56.836Z,20.50
2023-03-02T12:41:47.915Z,17.98
2023-03-02T12:44:33.448Z,18.90
2023-03-02T12:47:03.790Z,17.35
2023-03-02T12:49:46.175Z,19.33
2023-03-02T12:52:23.997Z,16.73
2023-03-02T12:55:03.495Z,18.55
2023-03-02T12:57:32.255Z,16.08
2023-03-02T13:00:02.805Z,16.42
2023-03-02T13:02:32.625Z,16.70
2023-03-02T13:05:02.844Z,18.63
2023-03-02T13:07:37.514Z,16.73
2023-03-02T13:10:17.229Z,17.35
2023-03-02T13:12:47.459Z,15.98
2023-03-02T13:15:18.147Z,17.70
2023-03-02T13:17:53.581Z,19.08
2023-03-02T13:20:25.607Z,14.77
2023-03-02T13:22:54.257Z,17.17
2023-03-02T13:25:28.007Z,15.40
2023-03-02T13:28:00.158Z,17.48
2023-03-02T13:30:33.214Z,17.73
2023-03-02T13:33:04.111Z,18.65
2023-03-02T13:35:34.630Z,18.75
2023-03-02T13:38:05.630Z,17.40
2023-03-02T13:40:47.752Z,16.48
2023-03-02T13:43:37.057Z,17.17
2023-03-02T13:46:07.220Z,15.55
2023-03-02T13:48:35.462Z,15.85
2023-03-02T13:51:15.135Z,16.05
2023-03-02T13:53:51.557Z,16.55
2023-03-02T13:56:25.772Z,15.27
2023-03-02T13:58:54.190Z,16.52
2023-03-02T14:01:22.604Z,15.95
2023-03-02T14:03:50.827Z,15.45
2023-03-02T14:06:19.142Z,15.07
2023-03-02T14:08:48.002Z,19.25
2023-03-02T14:11:17.221Z,14.95
2023-03-02T14:13:50.354Z,14.55
2023-03-02T14:16:19.283Z,14.00
2023-03-02T14:18:48.784Z,17.27
2023-03-02T14:21:19.097Z,16.15
2023-03-02T14:23:48.293Z,14.15
2023-03-02T14:26:32.339Z,16.48
2023-03-02T14:29:06.000Z,17.30
2023-03-02T14:31:35.151Z,14.40
2023-03-02T14:34:03.721Z,21.13
2023-03-02T14:36:34.937Z,18.08
2023-03-02T14:39:07.064Z,18.05
2023-03-02T14:41:52.425Z,21.48
2023-03-02T14:44:22.544Z,23.27
2023-03-02T14:46:50.954Z,22.90
2023-03-02T14:49:19.165Z,21.60
2023-03-02T14:51:54.477Z,24.35
2023-03-02T14:54:23.043Z,23.33
2023-03-02T14:56:51.641Z,24.13
2023-03-02T14:59:20.035Z,27.38
2023-03-02T15:01:49.632Z,27.85
2023-03-02T15:04:17.872Z,26.92
2023-03-02T15:06:47.459Z,27.58
2023-03-02T15:09:15.754Z,30.63
2023-03-02T15:11:44.172Z,30.00
2023-03-02T15:14:12.409Z,30.17
2023-03-02T15:16:42.847Z,26.70
2023-03-02T15:19:12.658Z,26.60
2023-03-02T15:21:44.771Z,31.92
2023-03-02T15:24:13.680Z,30.73
2023-03-02T15:26:42.324Z,30.98
2023-03-02T15:29:10.821Z,33.00
2023-03-02T15:31:39.370Z,28.23
2023-03-02T15:34:07.775Z,33.33
2023-03-02T15:36:37.412Z,33.90
2023-03-02T15:39:07.799Z,28.67
2023-03-02T15:41:36.538Z,30.45
2023-03-02T15:44:04.737Z,32.10
2023-03-02T15:46:33.091Z,37.17
2023-03-02T15:49:01.274Z,36.85
2023-03-02T15:51:29.545Z,33.83
2023-03-02T15:53:59.528Z,34.30
2023-03-02T15:56:38.853Z,36.45
2023-03-02T15:59:10.794Z,34.30
2023-03-02T16:01:39.028Z,38.13
2023-03-02T16:04:07.282Z,35.65
2023-03-02T16:06:35.456Z,35.25
2023-03-02T16:09:05.212Z,39.00
2023-03-02T16:11:33.501Z,35.80
2023-03-02T16:14:01.704Z,33.13
2023-03-02T16:16:31.110Z,35.72
2023-03-02T16:19:01.208Z,38.83
2023-03-02T16:21:29.994Z,37.95
2023-03-02T16:24:03.950Z,38.20
2023-03-02T16:26:35.083Z,40.38
2023-03-02T16:29:03.755Z,36.78
2023-03-02T16:31:33.788Z,34.40
2023-03-02T16:34:07.017Z,36.83
2023-03-02T16:36:36.552Z,40.13
2023-03-02T16:39:06.336Z,41.00
2023-03-02T16:41:36.329Z,37.97
2023-03-02T16:44:05.361Z,40.97
2023-03-02T16:46:36.471Z,38.58
2023-03-02T16:49:05.386Z,35.58
2023-03-02T16:51:34.434Z,39.88
2023-03-02T16:54:03.171Z,40.33
2023-03-02T16:56:31.460Z,41.33
2023-03-02T16:59:01.092Z,37.85
2023-03-02T17:01:29.583Z,39.25
2023-03-02T17:03:58.056Z,41.03
2023-03-02T17:06:26.521Z,36.28
2023-03-02T17:08:54.712Z,39.55
2023-03-02T17:11:22.966Z,37.60
2023-03-02T17:13:51.333Z,36.78
2023-03-02T17:16:20.871Z,41.05
2023-03-02T17:18:49.266Z,37.83
2023-03-02T17:21:18.284Z,40.25
2023-03-02T17:23:48.018Z,39.30
2023-03-02T17:26:17.038Z,41.25
2023-03-02T17:28:45.337Z,41.13
2023-03-02T17:31:13.629Z,37.38
2023-03-02T17:33:43.724Z,38.03
2023-03-02T17:36:12.849Z,39.15
2023-03-02T17:38:41.379Z,42.00
2023-03-02T17:41:14.888Z,37.70
2023-03-02T17:43:43.776Z,38.00
2023-03-02T17:46:14.382Z,40.28
2023-03-02T17:48:44.616Z,37.17
2023-03-02T17:51:14.961Z,41.45
2023-03-02T17:53:43.622Z,41.05
2023-03-02T17:56:13.266Z,41.28
2023-03-02T17:59:06.063Z,44.47
2023-03-02T18:01:35.142Z,41.00
2023-03-02T18:04:04.895Z,152.88
2023-03-02T18:06:33.597Z,370.50
2023-03-02T18:09:01.844Z,374.80
2023-03-02T18:11:30.244Z,325.05
2023-03-02T18:13:59.469Z,429.98
2023-03-02T18:16:29.426Z,274.90
2023-03-02T18:18:58.303Z,205.20
2023-03-02T18:21:27.912Z,194.63
2023-03-02T18:23:56.637Z,255.77
2023-03-02T18:26:25.413Z,286.90
2023-03-02T18:28:53.748Z,265.67
2023-03-02T18:31:22.537Z,281.10
2023-03-02T18:33:51.005Z,240.27
2023-03-02T18:36:19.609Z,227.27
2023-03-02T18:38:53.107Z,157.15
2023-03-02T18:41:22.001Z,143.02
2023-03-02T18:43:50.526Z,109.97
2023-03-02T18:46:21.819Z,152.70
2023-03-02T18:48:51.041Z,181.48
2023-03-02T18:51:20.155Z,223.23
2023-03-02T18:53:51.108Z,268.25
2023-03-02T18:56:20.370Z,342.02
2023-03-02T18:58:49.854Z,259.17
2023-03-02T19:01:18.765Z,218.23
2023-03-02T19:03:47.166Z,185.77
2023-03-02T19:06:15.845Z,143.43
2023-03-02T19:08:44.447Z,105.97
2023-03-02T19:11:14.080Z,88.88
2023-03-02T19:13:42.358Z,71.65
2023-03-02T19:16:10.812Z,69.22
2023-03-02T19:18:39.475Z,60.67
2023-03-02T19:21:07.968Z,54.38
2023-03-02T19:23:36.236Z,46.50
2023-03-02T19:26:04.883Z,46.00
2023-03-02T19:28:35.098Z,45.92
2023-03-02T19:31:06.655Z,50.08
2023-03-02T19:33:35.026Z,47.30
2023-03-02T19:36:03.304Z,43.70
2023-03-02T19:38:31.587Z,47.70
2023-03-02T19:41:01.904Z,46.40
2023-03-02T19:43:30.407Z,44.40
2023-03-02T19:46:00.837Z,43.35
2023-03-02T19:48:29.775Z,45.28
2023-03-02T19:50:58.224Z,44.15
2023-03-02T19:53:26.643Z,48.95
2023-03-02T19:55:54.897Z,43.13
2023-03-02T19:58:23.503Z,44.88
2023-03-02T20:00:51.906Z,42.88
2023-03-02T20:03:21.549Z,41.40
2023-03-02T20:05:49.815Z,45.15
2023-03-02T20:08:21.631Z,47.28
2023-03-02T20:10:50.719Z,41.05
2023-03-02T20:13:19.155Z,42.00
2023-03-02T20:15:48.578Z,41.03
2023-03-02T20:18:19.785Z,43.40
2023-03-02T20:20:49.436Z,42.70
2023-03-02T20:23:18.774Z,45.47
2023-03-02T20:25:48.532Z,43.22
2023-03-02T20:28:20.704Z,43.88
2023-03-02T20:30:51.533Z,42.65
2023-03-02T20:33:22.202Z,41.15
2023-03-02T20:35:53.387Z,43.07
2023-03-02T20:38:29.171Z,44.30
2023-03-02T20:40:57.878Z,43.17
2023-03-02T20:43:26.612Z,44.33
2023-03-02T20:45:54.961Z,46.30
2023-03-02T20:48:23.299Z,47.38
2023-03-02T20:50:53.114Z,45.20
2023-03-02T20:53:22.401Z,44.90
2023-03-02T20:55:50.730Z,45.35
2023-03-02T20:58:19.074Z,41.22
2023-03-02T21:00:48.847Z,43.50
2023-03-02T21:03:17.295Z,43.83
2023-03-02T21:05:45.717Z,39.72
2023-03-02T21:08:15.920Z,40.92
2023-03-02T21:10:45.436Z,42.55
2023-03-02T21:13:13.991Z,40.90
2023-03-02T21:15:43.005Z,40.20
2023-03-02T21:18:11.371Z,40.08
2023-03-02T21:20:40.150Z,40.42
2023-03-02T21:23:08.668Z,243.25
2023-03-02T21:25:39.899Z,260.17
2023-03-02T21:28:09.384Z,284.48
2023-03-02T21:30:37.993Z,291.60
2023-03-02T21:33:06.224Z,294.17
2023-03-02T21:35:34.431Z,218.20
2023-03-02T21:38:05.075Z,212.38
2023-03-02T21:40:36.032Z,264.40
2023-03-02T21:43:07.219Z,286.95
2023-03-02T21:45:37.073Z,452.38
2023-03-02T21:48:06.221Z,380.65
2023-03-02T21:50:36.786Z,268.42
2023-03-02T21:53:05.539Z,181.80
2023-03-02T21:55:34.866Z,134.50
2023-03-02T21:58:03.253Z,108.47
2023-03-02T22:00:36.757Z,81.00
2023-03-02T22:03:05.550Z,71.82
2023-03-02T22:05:34.563Z,125.72
2023-03-02T22:08:02.816Z,235.48
2023-03-02T22:10:35.579Z,322.30
2023-03-02T22:13:18.059Z,362.65
2023-03-02T22:15:49.853Z,308.70
2023-03-02T22:18:20.229Z,246.63
2023-03-02T22:20:51.203Z,173.05
2023-03-02T22:23:21.899Z,126.85
2023-03-02T22:25:53.055Z,93.47
2023-03-02T22:28:23.361Z,74.53
2023-03-02T22:30:57.856Z,62.40
2023-03-02T22:33:28.473Z,55.95
2023-03-02T22:36:01.864Z,51.03
2023-03-02T22:38:31.713Z,47.55
2023-03-02T22:41:00.067Z,51.28
2023-03-02T22:43:30.357Z,48.20
2023-03-02T22:46:11.403Z,44.25
2023-03-02T22:48:40.474Z,42.95
2023-03-02T22:51:15.640Z,45.33
2023-03-02T22:53:49.290Z,40.95
2023-03-02T22:56:34.725Z,39.92
2023-03-02T22:59:07.754Z,42.20
2023-03-02T23:01:42.179Z,39.22
2023-03-02T23:04:22.890Z,38.47
2023-03-02T23:06:52.849Z,36.70
2023-03-02T23:09:23.989Z,42.97
2023-03-02T23:11:54.039Z,39.92
2023-03-02T23:14:27.980Z,40.80
2023-03-02T23:17:00.158Z,38.53
2023-03-02T23:19:29.415Z,42.17
2023-03-02T23:21:58.569Z,40.47
2023-03-02T23:24:27.525Z,39.03
2023-03-02T23:26:55.966Z,38.30
2023-03-02T23:29:24.656Z,41.97
2023-03-02T23:31:53.192Z,40.00
2023-03-02T23:34:23.482Z,43.45
2023-03-02T23:36:51.758Z,38.70
2023-03-02T23:39:19.963Z,38.75
2023-03-02T23:41:48.240Z,39.92
2023-03-02T23:44:16.555Z,40.45
2023-03-02T23:46:44.898Z,38.95
2023-03-02T23:49:13.402Z,39.10
2023-03-02T23:51:43.504Z,40.22
2023-03-02T23:54:11.978Z,39.92
2023-03-02T23:56:40.131Z,38.35
2023-03-02T23:59:08.513Z,41.25
